Date,TemperatureHighF,TemperatureAvgF,TemperatureLowF,DewpointHighF,DewpointAvgF,DewpointLowF,HumidityHigh,HumidityAvg,HumidityLow,PressureMaxIn,PressureMinIn,WindSpeedMaxMPH,WindSpeedAvgMPH,GustSpeedMaxMPH,PrecipitationSumIn
2013-5-1,71.3,57.1,43.8,48.6,44.7,36.0,85,65,41,30.32,29.93,16,5,23,0.00
2013-5-2,43.8,38.5,33.4,37.1,34.0,30.0,93,84,74,30.38,30.31,12,6,21,0.02
2013-5-3,43.1,37.0,32.2,42.8,35.8,30.0,99,95,88,30.31,30.08,9,3,15,0.72
2013-5-4,71.1,55.9,43.2,55.6,48.2,42.8,100,78,50,30.10,30.03,11,1,16,0.06
2013-5-5,75.3,60.6,46.2,50.9,46.9,41.3,96,65,32,30.10,30.02,9,0,17,0.00
2013-5-6,78.5,62.4,46.1,50.7,44.6,40.3,96,59,28,30.11,30.01,7,0,8,0.00
2013-5-7,80.3,65.3,47.3,49.1,42.0,32.1,91,49,20,30.07,29.99,11,1,16,0.00
2013-5-8,81.2,67.6,49.1,53.3,45.6,39.8,85,50,26,30.02,29.93,12,1,18,0.00
2013-5-9,66.0,58.4,48.2,57.1,53.8,46.6,97,85,60,29.95,29.88,14,1,23,0.84
2013-5-10,58.3,48.8,41.6,47.3,44.0,40.0,96,84,65,30.02,29.92,12,2,22,0.19
2013-5-11,51.0,47.7,41.6,47.9,36.0,24.8,94,66,38,30.07,29.79,21,7,31,0.00
2013-5-12,54.2,44.5,35.9,30.4,25.4,20.3,73,49,28,30.14,30.07,13,4,21,0.00
2013-5-13,64.2,50.4,31.0,37.9,30.3,24.4,86,50,26,30.17,29.82,13,2,21,0.00
2013-5-14,88.2,73.5,58.0,59.6,50.0,37.6,67,46,26,29.82,29.48,25,6,31,0.00
2013-5-15,76.5,69.5,60.2,57.7,45.0,39.0,66,43,29,29.84,29.53,13,2,25,0.00
2013-5-16,85.5,68.5,51.0,52.9,47.9,40.2,85,51,26,29.97,29.83,12,1,20,0.00
2013-5-17,61.8,55.1,48.3,54.5,46.3,33.5,98,75,38,30.08,29.96,9,2,18,0.70
2013-5-18,78.6,65.2,50.4,64.7,57.1,48.5,94,76,59,30.06,29.89,8,1,17,0.00
2013-5-19,84.9,72.7,60.4,66.4,61.8,57.3,95,71,43,29.89,29.61,19,3,28,0.00
2013-5-20,79.9,70.7,61.2,64.4,61.0,58.1,98,74,51,29.78,29.56,20,5,30,0.59
2013-5-21,73.0,66.6,59.5,63.6,59.2,56.5,97,78,60,29.68,29.54,16,3,23,0.07
2013-5-22,64.7,59.6,52.3,60.2,57.5,51.2,98,93,82,29.83,29.61,7,1,13,1.10
2013-5-23,63.9,54.0,45.4,51.5,41.7,32.0,97,68,32,30.32,29.83,11,2,20,0.19
2013-5-24,66.8,53.3,38.6,45.0,37.3,31.5,88,57,31,30.45,30.29,8,1,11,0.00
2013-5-25,62.0,54.7,49.6,44.7,41.7,35.6,82,63,42,30.36,30.27,8,1,13,0.00
2013-5-26,64.8,54.7,45.5,52.9,43.7,37.2,87,68,39,30.30,30.14,8,1,20,0.06
2013-5-27,56.0,53.7,50.7,53.6,48.7,41.2,98,84,62,30.14,29.87,10,2,17,0.31
2013-5-28,63.4,56.3,50.5,60.3,55.2,50.2,100,96,86,29.88,29.71,6,0,12,0.13
2013-5-29,83.8,68.9,59.9,67.7,62.6,59.2,100,83,52,29.85,29.76,18,1,25,0.49
2013-5-30,80.5,69.8,62.6,71.4,65.8,60.1,100,88,66,29.83,29.64,19,4,29,0.57
2013-5-31,79.2,71.4,63.5,64.1,61.5,58.1,89,72,50,29.71,29.63,20,6,30,0.00